Aérodrome :
LOGIN :

S'inscrire | Disclaimer

   EN    FR    IT 

 










Légende :    VFR   VFR Marginal   IFR   IFR Intensif   IFR Très Intensif
Visi : 
Plafond : 
>= 8 km
>= 3000ft
5 à 8 km
1000 à 3000 ft
1500m à 5 km
500 à 1000 ft
800 à 1500m
200 à 500 ft
< 800m
< 200 ft
Symboles :   Orages  Brouillard  Fortes neiges  Fortes précipitations  Vent > 20 kt
SIGMETs :   Divers  Orages  Givrage  Turbulence  Onde Orograph.  Cendres Volcan.






- Altitude de l'aérodrome : 466 ft


LHPA - Pápa

DERNIER METAR :
  • 090115Z 09002KT 0300 R16/0550VP1500U FZFG FEW083 M01/M01 Q1009 NOSIG RMK RED

METARs EXPIRÉS :
  • 090045Z 04002KT 0300 R16/P1500 FZFG FEW083 M01/M01 Q1009 NOSIG RMK RED
  • 090040Z 01002KT 0500 R16/P1500 FG FEW083 M01/M01 Q1009 RMK RED
  • 090036Z 36002KT 1000 R16/P1500 BR FEW083 M01/M01 Q1009 RMK AMB
  • 090025Z 36002KT 2000 BR FEW083 M00/M00 Q1009 RMK YLO
  • 090003Z 32004KT 4000 BR FEW083 M01/M02 Q1009 RMK GRN
  • 082345Z 36002KT 6000 NSC 03/02 Q1009 BECMG 5000 BR RMK WHT
  • 082315Z 18004KT 8000 NSC 03/02 Q1009 NOSIG RMK BLU
  • 082245Z 22004KT CAVOK 04/02 Q1010 NOSIG RMK BLU
  • 082215Z 20006KT CAVOK 04/03 Q1010 NOSIG RMK BLU

TAF TAF LHPA
Valide du 09 à 00h jusqu'au 10 à 00h UTC


082315Z 0900/0924 19007KT CAVOK
BECMG 0900/0902 VRB03KT 3000 BR SCT010
TEMPO 0902/0906 0800 FG BKN003
BECMG 0906/0908 CAVOK
BECMG 0908/0910 36005KT 9999 SCT030 BKN060
TEMPO 0912/0924 6000 RA SCT020 BKN040



MET'MAP, la Météo Aéronautique d'un coup d'oeil ! - Copyright ORBIFLY Décembre 2007 - Disclaimer

ORBIFLY MET'MAP TEAM :

Programmation & Développement : Alexandra Zaïnal
Sur une idée originale de : Baudouin d'Aumeries
Assistance à la programmation : Marc-Olivier Méhu
Soutien technique & logistique : Manuel Goepfert

Contact : metmap@orbifly.com




SOURCES & CREDITS :

   NOAA